McCook, NE

1:16 PM CDT on August 04, 2015 (GMT -0500)
KNEMCCOO2 | | Change Station
CLOSE
Current Station
Personal Weather Station
Location: McCook, NE
Elevation: 2609 ft
Nearby Weather Stations

Elev 2609 ft 40.21 °N, 100.64 °W | Updated 1 minute ago

Thunderstorm
Thunderstorm
66.0 °F
Feels Like 66.0 °F
N
1.1
Wind Variable Wind from SE
Gusts 21.2 mph

Today
High -- | Low -- °F
--% Chance of Precip.
Yesterday
High -- | Low -- °F
Precip. -- in
6:43 AM 8:53 PM
Waning Gibbous, 75% visible
Pressure 29.93 in
Visibility 10.0 miles
Clouds Few 900 ft
Mostly Cloudy 9000 ft
Overcast 11000 ft
Dew Point 65 °F
Humidity 96%
Rainfall 2.43 in
Snow Depth Not available.
UV 3 out of 12
Pollen 7.90 out of 12
Air Quality Not available.
Flu Activity Not available.
SPECI KMCK 041800Z AUTO 09020G27KT 10SM VCTS FEW009 BKN090 OVC110 20/17 A2993 RMK AO2 PK WND 10027/1754 LTG DSNT ALQDS TSE1754 T02000172

More Conditions Fewer Conditions

Pressure 29.93 in
Visibility 10.0 miles
Clouds Few 900 ft
Mostly Cloudy 9000 ft
Overcast 11000 ft
Dew Point 65 °F
Humidity 96%
Rainfall 2.43 in
Snow Depth Not available.
UV 3 out of 12
Pollen 7.90 out of 12
Air Quality Not available.
Flu Activity Not available.
SPECI KMCK 041800Z AUTO 09020G27KT 10SM VCTS FEW009 BKN090 OVC110 20/17 A2993 RMK AO2 PK WND 10027/1754 LTG DSNT ALQDS TSE1754 T02000172

More Conditions Fewer Conditions

10-Day Weather Forecast

×

Almanac

Astronomy

Aug. 04, 2015 Rise Set
Actual Time
Civil Twilight
Nautical Twilight
Astronomical Twilight
Moon
Length of Visible Light
Length of Day
Tomorrow will be .
, % of the Moon is Illuminated

Today's Extremes

State Highs State Lows

Community

WunderPhotos

Upload Photos

1,843,935 photos uploaded!

WunderBlogs® & News

Nearby

Air Quality

  Air Quality AQ Index Pollutant
Not available.

Snow Depth

Station Depth Elevation

Earthquake Activity

City Distance Mag. Time & Date
Minimum magnitude displayed is 2.5.

Coastal Water Temperatures

Place Temperature

Stations

Nearby Weather Stations

Station Location Temp. Windchill Dew Point Humidity Wind Precip. Elev Updated Type